Time,TemperatureF,DewpointF,PressureIn,WindDirection,WindDirectionDegrees,WindSpeedMPH,WindSpeedGustMPH,Humidity,HourlyPrecipIn,Conditions,Clouds,dailyrainin,SoftwareType,DateUTC
2014-12-22 00:06:00,44.4,40.0,30.18,NW,316,0.0,3.0,84,0.00,,,0.00,weatherlink.com 1.10,2014-12-22 05:06:00,
2014-12-22 00:21:00,44.3,40.0,30.18,North,1,0.0,2.0,84,0.00,,,0.00,weatherlink.com 1.10,2014-12-22 05:21:00,
2014-12-22 00:36:00,44.3,40.0,30.18,NNW,343,0.0,3.0,84,0.00,,,0.00,weatherlink.com 1.10,2014-12-22 05:36:00,
2014-12-22 00:51:00,44.2,40.0,30.17,NE,46,1.0,2.0,85,0.01,,,0.01,weatherlink.com 1.10,2014-12-22 05:51:00,
2014-12-22 01:06:00,43.6,41.0,30.16,NNW,339,0.0,0.0,89,0.02,,,0.02,weatherlink.com 1.10,2014-12-22 06:06:00,
2014-12-22 01:21:00,43.1,41.0,30.16,NNW,339,0.0,1.0,91,0.02,,,0.02,weatherlink.com 1.10,2014-12-22 06:21:00,
2014-12-22 01:36:00,42.8,41.0,30.15,NNW,339,0.0,1.0,92,0.02,,,0.02,weatherlink.com 1.10,2014-12-22 06:36:00,
2014-12-22 01:51:00,42.6,41.0,30.15,NNW,339,0.0,1.0,93,0.01,,,0.02,weatherlink.com 1.10,2014-12-22 06:51:00,
2014-12-22 02:06:00,42.5,41.0,30.16,NNW,339,0.0,0.0,94,0.00,,,0.02,weatherlink.com 1.10,2014-12-22 07:06:00,
2014-12-22 02:21:00,42.3,41.0,30.15,NNW,338,0.0,0.0,94,0.00,,,0.02,weatherlink.com 1.10,2014-12-22 07:21:00,
2014-12-22 02:36:00,42.3,41.0,30.13,North,6,0.0,0.0,94,0.00,,,0.02,weatherlink.com 1.10,2014-12-22 07:36:00,
2014-12-22 02:52:00,42.3,41.0,30.13,North,6,0.0,0.0,95,0.00,,,0.02,weatherlink.com 1.10,2014-12-22 07:52:00,
2014-12-22 03:07:00,42.3,41.0,30.12,North,6,0.0,0.0,95,0.00,,,0.02,weatherlink.com 1.10,2014-12-22 08:07:00,
2014-12-22 03:22:00,42.3,41.0,30.13,ESE,113,0.0,0.0,95,0.00,,,0.02,weatherlink.com 1.10,2014-12-22 08:22:00,
2014-12-22 03:37:00,42.3,41.0,30.11,ESE,120,0.0,0.0,95,0.00,,,0.02,weatherlink.com 1.10,2014-12-22 08:37:00,
2014-12-22 03:52:00,42.4,41.0,30.11,SW,217,0.0,2.0,94,0.00,,,0.02,weatherlink.com 1.10,2014-12-22 08:52:00,
2014-12-22 04:07:00,42.5,41.0,30.11,South,191,0.0,0.0,95,0.00,,,0.02,weatherlink.com 1.10,2014-12-22 09:07:00,
2014-12-22 04:22:00,42.3,41.0,30.09,SSW,203,0.0,0.0,95,0.00,,,0.02,weatherlink.com 1.10,2014-12-22 09:22:00,
2014-12-22 04:37:00,42.2,41.0,30.09,SSW,203,0.0,0.0,95,0.01,,,0.03,weatherlink.com 1.10,2014-12-22 09:37:00,
2014-12-22 04:52:00,42.1,41.0,30.10,SSW,203,0.0,0.0,95,0.01,,,0.03,weatherlink.com 1.10,2014-12-22 09:52:00,
2014-12-22 05:07:00,42.0,41.0,30.09,SSW,204,0.0,0.0,95,0.01,,,0.03,weatherlink.com 1.10,2014-12-22 10:07:00,
2014-12-22 05:22:00,42.0,41.0,30.09,SSW,204,0.0,0.0,95,0.01,,,0.03,weatherlink.com 1.10,2014-12-22 10:22:00,
2014-12-22 05:37:00,42.0,41.0,30.09,SSW,204,0.0,0.0,95,0.00,,,0.03,weatherlink.com 1.10,2014-12-22 10:37:00,
2014-12-22 05:52:00,41.9,41.0,30.10,SSW,204,0.0,0.0,96,0.00,,,0.03,weatherlink.com 1.10,2014-12-22 10:52:00,
2014-12-22 06:07:00,41.9,41.0,30.11,SSW,204,0.0,0.0,96,0.00,,,0.03,weatherlink.com 1.10,2014-12-22 11:07:00,
2014-12-22 06:22:00,41.9,41.0,30.11,SSW,205,0.0,0.0,96,0.00,,,0.03,weatherlink.com 1.10,2014-12-22 11:22:00,
2014-12-22 06:37:00,41.8,41.0,30.10,SSW,204,0.0,0.0,96,0.00,,,0.03,weatherlink.com 1.10,2014-12-22 11:37:00,
2014-12-22 06:52:00,41.8,41.0,30.10,SSW,204,0.0,0.0,96,0.00,,,0.03,weatherlink.com 1.10,2014-12-22 11:52:00,
2014-12-22 07:07:00,41.7,41.0,30.10,SSW,204,0.0,0.0,96,0.00,,,0.03,weatherlink.com 1.10,2014-12-22 12:07:00,
2014-12-22 07:22:00,41.7,41.0,30.11,SSW,204,0.0,0.0,96,0.01,,,0.04,weatherlink.com 1.10,2014-12-22 12:22:00,
2014-12-22 07:37:00,41.7,41.0,30.12,SSW,204,0.0,0.0,96,0.01,,,0.04,weatherlink.com 1.10,2014-12-22 12:37:00,
2014-12-22 07:52:00,41.5,41.0,30.11,SSW,204,0.0,0.0,96,0.01,,,0.04,weatherlink.com 1.10,2014-12-22 12:52:00,
2014-12-22 08:07:00,41.5,41.0,30.13,SSW,204,0.0,0.0,96,0.01,,,0.04,weatherlink.com 1.10,2014-12-22 13:07:00,
2014-12-22 08:22:00,41.5,41.0,30.12,SSW,204,0.0,0.0,96,0.00,,,0.04,weatherlink.com 1.10,2014-12-22 13:22:00,
2014-12-22 08:37:00,41.5,41.0,30.12,SSW,204,0.0,0.0,96,0.00,,,0.04,weatherlink.com 1.10,2014-12-22 13:37:00,
2014-12-22 08:52:00,41.5,41.0,30.12,SSW,205,0.0,0.0,96,0.00,,,0.04,weatherlink.com 1.10,2014-12-22 13:52:00,
2014-12-22 09:07:00,41.7,41.0,30.12,SSW,204,0.0,0.0,96,0.00,,,0.04,weatherlink.com 1.10,2014-12-22 14:07:00,
2014-12-22 09:22:00,41.7,41.0,30.13,WSW,255,0.0,0.0,96,0.00,,,0.04,weatherlink.com 1.10,2014-12-22 14:22:00,
2014-12-22 09:37:00,42.1,41.0,30.13,WSW,255,0.0,0.0,96,0.00,,,0.04,weatherlink.com 1.10,2014-12-22 14:37:00,
2014-12-22 09:52:00,42.1,41.0,30.12,WSW,255,0.0,0.0,96,0.00,,,0.04,weatherlink.com 1.10,2014-12-22 14:52:00,
2014-12-22 10:07:00,42.6,42.0,30.12,WSW,255,0.0,0.0,96,0.00,,,0.04,weatherlink.com 1.10,2014-12-22 15:07:00,
2014-12-22 10:22:00,43.0,42.0,30.12,WSW,253,0.0,0.0,96,0.00,,,0.04,weatherlink.com 1.10,2014-12-22 15:22:00,
2014-12-22 10:37:00,43.1,42.0,30.12,SW,226,0.0,0.0,96,0.00,,,0.04,weatherlink.com 1.10,2014-12-22 15:37:00,
2014-12-22 10:52:00,43.3,42.0,30.11,WSW,249,0.0,0.0,96,0.00,,,0.04,weatherlink.com 1.10,2014-12-22 15:52:00,
2014-12-22 11:07:00,43.5,42.0,30.11,SSW,198,0.0,0.0,95,0.00,,,0.04,weatherlink.com 1.10,2014-12-22 16:07:00,
2014-12-22 11:22:00,43.9,43.0,30.10,SSW,205,0.0,0.0,95,0.00,,,0.04,weatherlink.com 1.10,2014-12-22 16:22:00,
2014-12-22 11:37:00,43.9,42.0,30.09,SSW,204,0.0,0.0,93,0.00,,,0.04,weatherlink.com 1.10,2014-12-22 16:37:00,
2014-12-22 11:52:00,43.8,42.0,30.07,SE,139,0.0,0.0,93,0.00,,,0.04,weatherlink.com 1.10,2014-12-22 16:52:00,
2014-12-22 12:07:00,43.7,42.0,30.06,WSW,248,0.0,0.0,92,0.00,,,0.04,weatherlink.com 1.10,2014-12-22 17:07:00,
2014-12-22 12:22:00,44.0,42.0,30.05,WSW,248,0.0,0.0,92,0.00,,,0.04,weatherlink.com 1.10,2014-12-22 17:22:00,
2014-12-22 12:37:00,44.2,42.0,30.05,WSW,246,0.0,0.0,92,0.00,,,0.04,weatherlink.com 1.10,2014-12-22 17:37:00,
2014-12-22 12:52:00,44.3,42.0,30.04,WSW,246,0.0,0.0,91,0.00,,,0.04,weatherlink.com 1.10,2014-12-22 17:52:00,
2014-12-22 13:07:00,44.5,42.0,30.05,WSW,246,0.0,0.0,91,0.00,,,0.04,weatherlink.com 1.10,2014-12-22 18:07:00,
2014-12-22 13:22:00,44.6,42.0,30.04,WSW,246,0.0,0.0,91,0.00,,,0.04,weatherlink.com 1.10,2014-12-22 18:22:00,
2014-12-22 13:37:00,44.7,42.0,30.03,NW,326,1.0,2.0,90,0.00,,,0.04,weatherlink.com 1.10,2014-12-22 18:37:00,
2014-12-22 13:52:00,44.8,42.0,30.02,WNW,301,0.0,2.0,90,0.00,,,0.04,weatherlink.com 1.10,2014-12-22 18:52:00,
2014-12-22 14:07:00,45.1,42.0,30.01,WNW,301,0.0,1.0,88,0.00,,,0.04,weatherlink.com 1.10,2014-12-22 19:07:00,
2014-12-22 14:22:00,45.0,42.0,30.01,NNW,336,1.0,1.0,88,0.00,,,0.04,weatherlink.com 1.10,2014-12-22 19:22:00,
2014-12-22 14:37:00,45.1,42.0,30.01,NNW,333,1.0,2.0,88,0.00,,,0.04,weatherlink.com 1.10,2014-12-22 19:37:00,
2014-12-22 14:52:00,45.0,42.0,30.02,WNW,301,1.0,3.0,88,0.00,,,0.04,weatherlink.com 1.10,2014-12-22 19:52:00,
2014-12-22 15:07:00,44.6,41.0,30.00,North,4,0.0,4.0,88,0.00,,,0.04,weatherlink.com 1.10,2014-12-22 20:07:00,
2014-12-22 15:22:00,44.3,41.0,30.01,NNW,340,0.0,2.0,88,0.00,,,0.04,weatherlink.com 1.10,2014-12-22 20:22:00,
2014-12-22 15:37:00,44.0,41.0,30.00,NNE,20,3.0,3.0,89,0.00,,,0.04,weatherlink.com 1.10,2014-12-22 20:37:00,